createdAt,value
2023-07-02T00:05:11.782Z,100.00
2023-07-02T00:12:45.834Z,100.00
2023-07-02T00:20:21.241Z,100.00
2023-07-02T00:27:55.136Z,100.00
2023-07-02T00:35:30.338Z,100.00
2023-07-02T00:43:04.235Z,100.00
2023-07-02T00:50:39.843Z,100.00
2023-07-02T00:58:16.809Z,100.00
2023-07-02T01:05:52.317Z,100.00
2023-07-02T01:13:28.035Z,100.00
2023-07-02T01:21:08.141Z,100.00
2023-07-02T01:28:42.056Z,100.00
2023-07-02T01:36:17.404Z,100.00
2023-07-02T01:43:51.561Z,100.00
2023-07-02T01:51:26.850Z,100.00
2023-07-02T01:59:00.738Z,100.00
2023-07-02T02:06:36.843Z,100.00
2023-07-02T02:14:11.510Z,100.00
2023-07-02T02:21:46.801Z,100.00
2023-07-02T02:29:20.690Z,100.00
2023-07-02T02:36:56.473Z,100.00
2023-07-02T02:44:30.530Z,100.00
2023-07-02T02:52:06.454Z,100.00
2023-07-02T02:59:40.540Z,100.00
2023-07-02T03:07:16.132Z,100.00
2023-07-02T03:14:54.076Z,100.00
2023-07-02T03:22:29.290Z,100.00
2023-07-02T03:30:04.978Z,100.00
2023-07-02T03:37:43.264Z,100.00
2023-07-02T03:45:17.306Z,100.00
2023-07-02T03:52:52.662Z,100.00
2023-07-02T04:00:26.752Z,100.00
2023-07-02T04:08:01.967Z,100.00
2023-07-02T04:15:36.304Z,100.00
2023-07-02T04:23:11.677Z,100.00
2023-07-02T04:30:46.188Z,96.38
2023-07-02T04:38:21.502Z,95.55
2023-07-02T04:45:55.574Z,97.87
2023-07-02T04:53:31.257Z,96.48
2023-07-02T05:01:06.142Z,96.10
2023-07-02T05:08:43.108Z,93.80
2023-07-02T05:16:17.289Z,91.09
2023-07-02T05:23:52.986Z,88.53
2023-07-02T05:31:27.023Z,86.07
2023-07-02T05:39:02.653Z,82.62
2023-07-02T05:46:36.696Z,81.40
2023-07-02T05:54:12.047Z,79.38
2023-07-02T06:01:46.283Z,77.13
2023-07-02T06:09:22.101Z,73.36
2023-07-02T06:16:58.825Z,73.88
2023-07-02T06:24:34.374Z,71.98
2023-07-02T06:32:09.409Z,68.23
2023-07-02T06:39:44.866Z,68.58
2023-07-02T06:47:21.619Z,67.82
2023-07-02T06:54:57.082Z,63.73
2023-07-02T07:02:31.217Z,61.84
2023-07-02T07:10:08.074Z,63.04
2023-07-02T07:17:42.670Z,61.24
2023-07-02T07:25:19.158Z,61.70
2023-07-02T07:32:53.422Z,62.16
2023-07-02T07:40:29.040Z,60.91
2023-07-02T07:48:04.014Z,59.50
2023-07-02T07:55:39.672Z,60.24
2023-07-02T08:03:13.634Z,61.72
2023-07-02T08:10:51.499Z,61.70
2023-07-02T08:18:26.044Z,61.60
2023-07-02T08:26:01.990Z,61.07
2023-07-02T08:33:36.066Z,58.79
2023-07-02T08:41:12.189Z,55.81
2023-07-02T08:48:46.184Z,56.04
2023-07-02T08:56:22.162Z,55.88
2023-07-02T09:04:02.469Z,55.79
2023-07-02T09:11:48.245Z,56.82
2023-07-02T09:19:25.867Z,57.41
2023-07-02T09:27:02.680Z,58.35
2023-07-02T09:34:38.337Z,58.36
2023-07-02T09:42:14.116Z,58.40
2023-07-02T09:49:55.073Z,60.69
2023-07-02T09:57:32.556Z,61.67
2023-07-02T10:05:07.174Z,54.44
2023-07-02T10:12:49.048Z,56.42
2023-07-02T10:20:35.003Z,53.97
2023-07-02T10:28:23.504Z,51.60
2023-07-02T10:35:57.336Z,53.58
2023-07-02T10:43:33.759Z,50.58
2023-07-02T10:51:14.701Z,47.65
2023-07-02T10:58:52.474Z,45.25
2023-07-02T11:06:27.130Z,45.40
2023-07-02T11:14:02.698Z,42.94
2023-07-02T11:21:36.783Z,42.82
2023-07-02T11:29:14.833Z,40.82
2023-07-02T11:36:49.411Z,42.35
2023-07-02T11:44:25.550Z,43.49
2023-07-02T11:51:59.894Z,39.96
2023-07-02T11:59:35.343Z,40.09
2023-07-02T12:07:09.163Z,41.27
2023-07-02T12:14:45.376Z,40.15
2023-07-02T12:22:20.194Z,39.70
2023-07-02T12:29:56.145Z,40.54
2023-07-02T12:37:30.342Z,40.11
2023-07-02T12:45:08.839Z,39.42
2023-07-02T12:52:42.750Z,38.93
2023-07-02T13:00:18.965Z,36.73
2023-07-02T13:07:53.067Z,36.58
2023-07-02T13:15:28.793Z,35.47
2023-07-02T13:23:02.791Z,36.03
2023-07-02T13:30:38.797Z,35.65
2023-07-02T13:38:12.704Z,35.26
2023-07-02T13:45:48.361Z,34.54
2023-07-02T13:53:22.558Z,33.96
2023-07-02T14:00:58.025Z,34.64
2023-07-02T14:08:32.057Z,34.20
2023-07-02T14:16:08.513Z,35.09
2023-07-02T14:23:43.053Z,33.75
2023-07-02T14:31:18.476Z,32.74
2023-07-02T14:38:52.529Z,32.68
2023-07-02T14:46:28.408Z,32.80
2023-07-02T14:54:05.369Z,32.49
2023-07-02T15:01:41.252Z,32.04
2023-07-02T15:09:15.232Z,32.26
2023-07-02T15:16:50.485Z,32.28
2023-07-02T15:24:24.593Z,32.90
2023-07-02T15:31:59.800Z,34.04
2023-07-02T15:39:34.687Z,33.81
2023-07-02T15:47:09.793Z,33.52
2023-07-02T15:54:43.735Z,34.08
2023-07-02T16:02:18.969Z,34.30
2023-07-02T16:09:52.893Z,33.91
2023-07-02T16:17:28.056Z,34.64
2023-07-02T16:25:01.897Z,33.59
2023-07-02T16:32:37.156Z,34.28
2023-07-02T16:40:11.713Z,33.54
2023-07-02T16:47:48.355Z,33.65
2023-07-02T16:55:22.361Z,34.01
2023-07-02T17:02:57.654Z,34.21
2023-07-02T17:10:31.772Z,33.00
2023-07-02T17:18:07.456Z,33.01
2023-07-02T17:25:41.383Z,33.55
2023-07-02T17:33:17.163Z,33.90
2023-07-02T17:40:52.454Z,35.11
2023-07-02T17:48:28.660Z,34.27
2023-07-02T17:56:02.612Z,34.18
2023-07-02T18:03:38.269Z,34.54
2023-07-02T18:11:12.838Z,35.41
2023-07-02T18:18:48.456Z,36.58
2023-07-02T18:26:22.232Z,36.61
2023-07-02T18:33:57.334Z,36.53
2023-07-02T18:41:31.337Z,36.66
2023-07-02T18:49:07.413Z,37.01
2023-07-02T18:56:41.401Z,37.36
2023-07-02T19:04:26.213Z,38.09
2023-07-02T19:12:03.897Z,38.17
2023-07-02T19:19:42.026Z,38.78
2023-07-02T19:27:26.881Z,39.59
2023-07-02T19:35:02.583Z,40.74
2023-07-02T19:42:37.446Z,42.70
2023-07-02T19:50:13.562Z,44.11
2023-07-02T19:57:47.603Z,44.95
2023-07-02T20:05:23.509Z,45.72
2023-07-02T20:12:57.338Z,46.68
2023-07-02T20:20:33.466Z,47.43
2023-07-02T20:28:07.491Z,48.26
2023-07-02T20:35:43.215Z,48.55
2023-07-02T20:43:17.036Z,48.12
2023-07-02T20:50:52.405Z,48.71
2023-07-02T20:58:26.653Z,48.73
2023-07-02T21:06:06.257Z,49.18
2023-07-02T21:13:40.084Z,49.26
2023-07-02T21:21:15.370Z,49.50
2023-07-02T21:28:49.187Z,49.46
2023-07-02T21:36:24.485Z,50.53
2023-07-02T21:43:59.466Z,51.18
2023-07-02T21:51:34.711Z,50.31
2023-07-02T21:59:08.787Z,51.46
2023-07-02T22:06:43.906Z,52.12
2023-07-02T22:14:17.712Z,52.34
2023-07-02T22:21:55.431Z,53.12
2023-07-02T22:29:29.349Z,53.70
2023-07-02T22:37:04.856Z,54.51
2023-07-02T22:44:38.568Z,54.49
2023-07-02T22:52:13.751Z,54.43
2023-07-02T22:59:47.961Z,56.30
2023-07-02T23:07:23.226Z,56.38
2023-07-02T23:14:57.014Z,56.36
2023-07-02T23:22:32.388Z,57.29
2023-07-02T23:30:08.514Z,58.36
2023-07-02T23:37:46.718Z,59.02
2023-07-02T23:45:21.041Z,59.95
2023-07-02T23:52:56.585Z,60.41
